sensor_id;sensor_type;location;lat;lon;timestamp;temperature;humidity
19522;DHT22;9905;52.126;5.596;2023-04-07T00:00:47;8.90;99.90
19522;DHT22;9905;52.126;5.596;2023-04-07T00:03:14;8.90;99.90
19522;DHT22;9905;52.126;5.596;2023-04-07T00:05:40;8.90;99.90
19522;DHT22;9905;52.126;5.596;2023-04-07T00:08:07;8.90;99.90
19522;DHT22;9905;52.126;5.596;2023-04-07T00:10:34;8.90;99.90
19522;DHT22;9905;52.126;5.596;2023-04-07T00:13:02;9.00;99.90
19522;DHT22;9905;52.126;5.596;2023-04-07T00:15:29;8.90;99.90
19522;DHT22;9905;52.126;5.596;2023-04-07T00:17:56;8.90;99.90
19522;DHT22;9905;52.126;5.596;2023-04-07T00:20:23;8.90;99.90
19522;DHT22;9905;52.126;5.596;2023-04-07T00:22:50;8.90;99.90
19522;DHT22;9905;52.126;5.596;2023-04-07T00:25:16;8.90;99.90
19522;DHT22;9905;52.126;5.596;2023-04-07T00:27:43;8.90;99.90
19522;DHT22;9905;52.126;5.596;2023-04-07T00:30:12;8.90;99.90
19522;DHT22;9905;52.126;5.596;2023-04-07T00:32:39;8.90;99.90
19522;DHT22;9905;52.126;5.596;2023-04-07T00:35:07;8.90;99.90
19522;DHT22;9905;52.126;5.596;2023-04-07T00:37:33;8.90;99.90
19522;DHT22;9905;52.126;5.596;2023-04-07T00:40:00;8.90;99.90
19522;DHT22;9905;52.126;5.596;2023-04-07T00:42:28;8.80;99.90
19522;DHT22;9905;52.126;5.596;2023-04-07T00:44:55;8.80;99.90
19522;DHT22;9905;52.126;5.596;2023-04-07T00:47:23;8.80;99.90
19522;DHT22;9905;52.126;5.596;2023-04-07T00:49:50;8.80;99.90
19522;DHT22;9905;52.126;5.596;2023-04-07T00:52:17;8.80;99.90
19522;DHT22;9905;52.126;5.596;2023-04-07T00:54:45;8.80;99.90
19522;DHT22;9905;52.126;5.596;2023-04-07T00:57:12;8.80;99.90
19522;DHT22;9905;52.126;5.596;2023-04-07T00:59:39;8.80;99.90
19522;DHT22;9905;52.126;5.596;2023-04-07T01:02:10;8.80;99.90
19522;DHT22;9905;52.126;5.596;2023-04-07T01:04:46;8.80;99.90
19522;DHT22;9905;52.126;5.596;2023-04-07T01:07:17;8.80;99.90
19522;DHT22;9905;52.126;5.596;2023-04-07T01:09:47;8.80;99.90
19522;DHT22;9905;52.126;5.596;2023-04-07T01:12:23;8.80;99.90
19522;DHT22;9905;52.126;5.596;2023-04-07T01:14:58;8.80;99.90
19522;DHT22;9905;52.126;5.596;2023-04-07T01:17:27;8.80;99.90
19522;DHT22;9905;52.126;5.596;2023-04-07T01:19:58;8.80;99.90
19522;DHT22;9905;52.126;5.596;2023-04-07T01:22:31;8.80;99.90
19522;DHT22;9905;52.126;5.596;2023-04-07T01:25:26;8.80;99.90
19522;DHT22;9905;52.126;5.596;2023-04-07T01:28:19;8.80;99.90
19522;DHT22;9905;52.126;5.596;2023-04-07T01:30:53;8.70;99.90
19522;DHT22;9905;52.126;5.596;2023-04-07T01:33:22;8.80;99.90
19522;DHT22;9905;52.126;5.596;2023-04-07T01:35:51;8.70;99.90
19522;DHT22;9905;52.126;5.596;2023-04-07T01:38:19;8.70;99.90
19522;DHT22;9905;52.126;5.596;2023-04-07T01:40:46;8.70;99.90
19522;DHT22;9905;52.126;5.596;2023-04-07T01:43:15;8.70;99.90
19522;DHT22;9905;52.126;5.596;2023-04-07T01:45:43;8.70;99.90
19522;DHT22;9905;52.126;5.596;2023-04-07T01:48:12;8.70;99.90
19522;DHT22;9905;52.126;5.596;2023-04-07T01:50:39;8.70;99.90
19522;DHT22;9905;52.126;5.596;2023-04-07T01:53:07;8.70;99.90
19522;DHT22;9905;52.126;5.596;2023-04-07T01:55:34;8.70;99.90
19522;DHT22;9905;52.126;5.596;2023-04-07T01:58:03;8.70;99.90
19522;DHT22;9905;52.126;5.596;2023-04-07T02:00:30;8.70;99.90
19522;DHT22;9905;52.126;5.596;2023-04-07T02:03:06;8.70;99.90
19522;DHT22;9905;52.126;5.596;2023-04-07T02:05:37;8.60;99.90
19522;DHT22;9905;52.126;5.596;2023-04-07T02:08:07;8.60;99.90
19522;DHT22;9905;52.126;5.596;2023-04-07T02:10:36;8.60;99.90
19522;DHT22;9905;52.126;5.596;2023-04-07T02:13:05;8.60;99.90
19522;DHT22;9905;52.126;5.596;2023-04-07T02:15:33;8.60;99.90
19522;DHT22;9905;52.126;5.596;2023-04-07T02:18:02;8.60;99.90
19522;DHT22;9905;52.126;5.596;2023-04-07T02:20:29;8.60;99.90
19522;DHT22;9905;52.126;5.596;2023-04-07T02:22:58;8.60;99.90
19522;DHT22;9905;52.126;5.596;2023-04-07T02:25:26;8.60;99.90
19522;DHT22;9905;52.126;5.596;2023-04-07T02:27:54;8.60;99.90
19522;DHT22;9905;52.126;5.596;2023-04-07T02:30:21;8.60;99.90
19522;DHT22;9905;52.126;5.596;2023-04-07T02:32:48;8.60;99.90
19522;DHT22;9905;52.126;5.596;2023-04-07T02:35:15;8.60;99.90
19522;DHT22;9905;52.126;5.596;2023-04-07T02:37:42;8.60;99.90
19522;DHT22;9905;52.126;5.596;2023-04-07T02:40:11;8.60;99.90
19522;DHT22;9905;52.126;5.596;2023-04-07T02:42:38;8.60;99.90
19522;DHT22;9905;52.126;5.596;2023-04-07T02:45:06;8.60;99.90
19522;DHT22;9905;52.126;5.596;2023-04-07T02:47:33;8.60;99.90
19522;DHT22;9905;52.126;5.596;2023-04-07T02:50:00;8.60;99.90
19522;DHT22;9905;52.126;5.596;2023-04-07T02:52:27;8.60;99.90
19522;DHT22;9905;52.126;5.596;2023-04-07T02:54:54;8.60;99.90
19522;DHT22;9905;52.126;5.596;2023-04-07T02:57:22;8.60;99.90
19522;DHT22;9905;52.126;5.596;2023-04-07T02:59:49;8.60;99.90
19522;DHT22;9905;52.126;5.596;2023-04-07T03:02:16;8.60;99.90
19522;DHT22;9905;52.126;5.596;2023-04-07T03:04:42;8.60;99.90
19522;DHT22;9905;52.126;5.596;2023-04-07T03:07:09;8.60;99.90
19522;DHT22;9905;52.126;5.596;2023-04-07T03:09:36;8.60;99.90
19522;DHT22;9905;52.126;5.596;2023-04-07T03:12:02;8.60;99.90
19522;DHT22;9905;52.126;5.596;2023-04-07T03:14:31;8.60;99.90
19522;DHT22;9905;52.126;5.596;2023-04-07T03:16:57;8.60;99.90
19522;DHT22;9905;52.126;5.596;2023-04-07T03:19:25;8.60;99.90
19522;DHT22;9905;52.126;5.596;2023-04-07T03:21:52;8.60;99.90
19522;DHT22;9905;52.126;5.596;2023-04-07T03:24:19;8.60;99.90
19522;DHT22;9905;52.126;5.596;2023-04-07T03:26:45;8.60;99.90
19522;DHT22;9905;52.126;5.596;2023-04-07T03:29:12;8.60;99.90
19522;DHT22;9905;52.126;5.596;2023-04-07T03:31:40;8.60;99.90
19522;DHT22;9905;52.126;5.596;2023-04-07T03:34:07;8.60;99.90
19522;DHT22;9905;52.126;5.596;2023-04-07T03:36:34;8.60;99.90
19522;DHT22;9905;52.126;5.596;2023-04-07T03:39:01;8.60;99.90
19522;DHT22;9905;52.126;5.596;2023-04-07T03:41:28;8.60;99.90
19522;DHT22;9905;52.126;5.596;2023-04-07T03:43:54;8.60;99.90
19522;DHT22;9905;52.126;5.596;2023-04-07T03:46:21;8.60;99.90
19522;DHT22;9905;52.126;5.596;2023-04-07T03:48:50;8.60;99.90
19522;DHT22;9905;52.126;5.596;2023-04-07T03:51:17;8.60;99.90
19522;DHT22;9905;52.126;5.596;2023-04-07T03:53:43;8.60;99.90
19522;DHT22;9905;52.126;5.596;2023-04-07T03:56:10;8.60;99.90
19522;DHT22;9905;52.126;5.596;2023-04-07T03:58:37;8.60;99.90
19522;DHT22;9905;52.126;5.596;2023-04-07T04:01:07;8.60;99.90
19522;DHT22;9905;52.126;5.596;2023-04-07T04:03:34;8.60;99.90
19522;DHT22;9905;52.126;5.596;2023-04-07T04:06:02;8.60;99.90
19522;DHT22;9905;52.126;5.596;2023-04-07T04:08:29;8.60;99.90
19522;DHT22;9905;52.126;5.596;2023-04-07T04:10:56;8.60;99.90
19522;DHT22;9905;52.126;5.596;2023-04-07T04:13:23;8.60;99.90
19522;DHT22;9905;52.126;5.596;2023-04-07T04:15:50;8.60;99.90
19522;DHT22;9905;52.126;5.596;2023-04-07T04:18:16;8.60;99.90
19522;DHT22;9905;52.126;5.596;2023-04-07T04:20:43;8.60;99.90
19522;DHT22;9905;52.126;5.596;2023-04-07T04:23:11;8.60;99.90
19522;DHT22;9905;52.126;5.596;2023-04-07T04:25:38;8.60;99.90
19522;DHT22;9905;52.126;5.596;2023-04-07T04:28:05;8.60;99.90
19522;DHT22;9905;52.126;5.596;2023-04-07T04:30:32;8.60;99.90
19522;DHT22;9905;52.126;5.596;2023-04-07T04:32:58;8.60;99.90
19522;DHT22;9905;52.126;5.596;2023-04-07T04:35:25;8.60;99.90
19522;DHT22;9905;52.126;5.596;2023-04-07T04:37:52;8.60;99.90
19522;DHT22;9905;52.126;5.596;2023-04-07T04:40:20;8.60;99.90
19522;DHT22;9905;52.126;5.596;2023-04-07T04:42:47;8.60;99.90
19522;DHT22;9905;52.126;5.596;2023-04-07T04:45:14;8.60;99.90
19522;DHT22;9905;52.126;5.596;2023-04-07T04:47:41;8.60;99.90
19522;DHT22;9905;52.126;5.596;2023-04-07T04:50:09;8.60;99.90
19522;DHT22;9905;52.126;5.596;2023-04-07T04:52:35;8.60;99.90
19522;DHT22;9905;52.126;5.596;2023-04-07T04:55:04;8.60;99.90
19522;DHT22;9905;52.126;5.596;2023-04-07T04:57:32;8.60;99.90
19522;DHT22;9905;52.126;5.596;2023-04-07T05:00:00;8.60;99.90
19522;DHT22;9905;52.126;5.596;2023-04-07T05:02:27;8.60;99.90
19522;DHT22;9905;52.126;5.596;2023-04-07T05:04:54;8.60;99.90
19522;DHT22;9905;52.126;5.596;2023-04-07T05:07:20;8.60;99.90
19522;DHT22;9905;52.126;5.596;2023-04-07T05:09:47;8.60;99.90
19522;DHT22;9905;52.126;5.596;2023-04-07T05:12:14;8.60;99.90
19522;DHT22;9905;52.126;5.596;2023-04-07T05:14:42;8.60;99.90
19522;DHT22;9905;52.126;5.596;2023-04-07T05:17:09;8.60;99.90
19522;DHT22;9905;52.126;5.596;2023-04-07T05:19:36;8.60;99.90
19522;DHT22;9905;52.126;5.596;2023-04-07T05:22:02;8.60;99.90
19522;DHT22;9905;52.126;5.596;2023-04-07T05:24:29;8.60;99.90
19522;DHT22;9905;52.126;5.596;2023-04-07T05:26:56;8.60;99.90
19522;DHT22;9905;52.126;5.596;2023-04-07T05:29:22;8.60;99.90
19522;DHT22;9905;52.126;5.596;2023-04-07T05:31:51;8.60;99.90
19522;DHT22;9905;52.126;5.596;2023-04-07T05:34:17;8.60;99.90
19522;DHT22;9905;52.126;5.596;2023-04-07T05:36:44;8.60;99.90
19522;DHT22;9905;52.126;5.596;2023-04-07T05:39:11;8.60;99.90
19522;DHT22;9905;52.126;5.596;2023-04-07T05:41:38;8.60;99.90
19522;DHT22;9905;52.126;5.596;2023-04-07T05:44:04;8.50;99.90
19522;DHT22;9905;52.126;5.596;2023-04-07T05:46:31;8.60;99.90
19522;DHT22;9905;52.126;5.596;2023-04-07T05:48:59;8.60;99.90
19522;DHT22;9905;52.126;5.596;2023-04-07T05:51:26;8.50;99.90
19522;DHT22;9905;52.126;5.596;2023-04-07T05:53:53;8.60;99.90
19522;DHT22;9905;52.126;5.596;2023-04-07T05:56:20;8.60;99.90
19522;DHT22;9905;52.126;5.596;2023-04-07T05:58:47;8.50;99.90
19522;DHT22;9905;52.126;5.596;2023-04-07T06:01:13;8.60;99.90
19522;DHT22;9905;52.126;5.596;2023-04-07T06:03:40;8.60;99.90
19522;DHT22;9905;52.126;5.596;2023-04-07T06:06:09;8.60;99.90
19522;DHT22;9905;52.126;5.596;2023-04-07T06:08:36;8.60;99.90
19522;DHT22;9905;52.126;5.596;2023-04-07T06:11:03;8.60;99.90
19522;DHT22;9905;52.126;5.596;2023-04-07T06:13:30;8.60;99.90
19522;DHT22;9905;52.126;5.596;2023-04-07T06:15:56;8.60;99.90
19522;DHT22;9905;52.126;5.596;2023-04-07T06:18:24;8.60;99.90
19522;DHT22;9905;52.126;5.596;2023-04-07T06:20:50;8.60;99.90
19522;DHT22;9905;52.126;5.596;2023-04-07T06:23:18;8.60;99.90
19522;DHT22;9905;52.126;5.596;2023-04-07T06:25:45;8.60;99.90
19522;DHT22;9905;52.126;5.596;2023-04-07T06:28:16;8.60;99.90
19522;DHT22;9905;52.126;5.596;2023-04-07T06:30:42;8.60;99.90
19522;DHT22;9905;52.126;5.596;2023-04-07T06:33:09;8.60;99.90
19522;DHT22;9905;52.126;5.596;2023-04-07T06:35:37;8.70;99.90
19522;DHT22;9905;52.126;5.596;2023-04-07T06:38:04;8.60;99.90
19522;DHT22;9905;52.126;5.596;2023-04-07T06:40:33;8.70;99.90
19522;DHT22;9905;52.126;5.596;2023-04-07T06:43:00;8.70;99.90
19522;DHT22;9905;52.126;5.596;2023-04-07T06:45:26;8.70;99.90
19522;DHT22;9905;52.126;5.596;2023-04-07T06:47:53;8.70;99.90
19522;DHT22;9905;52.126;5.596;2023-04-07T06:50:20;8.70;99.90
19522;DHT22;9905;52.126;5.596;2023-04-07T06:52:47;8.70;99.90
19522;DHT22;9905;52.126;5.596;2023-04-07T06:55:13;8.70;99.90
19522;DHT22;9905;52.126;5.596;2023-04-07T06:57:42;8.70;99.90
19522;DHT22;9905;52.126;5.596;2023-04-07T07:00:09;8.70;99.90
19522;DHT22;9905;52.126;5.596;2023-04-07T07:02:36;8.80;99.90
19522;DHT22;9905;52.126;5.596;2023-04-07T07:05:03;8.80;99.90
19522;DHT22;9905;52.126;5.596;2023-04-07T07:07:30;8.80;99.90
19522;DHT22;9905;52.126;5.596;2023-04-07T07:09:57;8.80;99.90
19522;DHT22;9905;52.126;5.596;2023-04-07T07:12:24;8.80;99.90
19522;DHT22;9905;52.126;5.596;2023-04-07T07:14:52;8.80;99.90
19522;DHT22;9905;52.126;5.596;2023-04-07T07:17:18;8.90;99.90
19522;DHT22;9905;52.126;5.596;2023-04-07T07:19:45;9.00;99.90
19522;DHT22;9905;52.126;5.596;2023-04-07T07:22:12;9.00;99.90
19522;DHT22;9905;52.126;5.596;2023-04-07T07:24:38;9.00;99.90
19522;DHT22;9905;52.126;5.596;2023-04-07T07:27:05;9.10;99.90
19522;DHT22;9905;52.126;5.596;2023-04-07T07:29:32;9.10;99.90
19522;DHT22;9905;52.126;5.596;2023-04-07T07:32:00;9.10;99.90
19522;DHT22;9905;52.126;5.596;2023-04-07T07:34:27;9.10;99.90
19522;DHT22;9905;52.126;5.596;2023-04-07T07:36:53;9.10;99.90
19522;DHT22;9905;52.126;5.596;2023-04-07T07:39:20;9.10;99.90
19522;DHT22;9905;52.126;5.596;2023-04-07T07:41:47;9.10;99.90
19522;DHT22;9905;52.126;5.596;2023-04-07T07:44:15;9.20;99.90
19522;DHT22;9905;52.126;5.596;2023-04-07T07:46:41;9.20;99.90
19522;DHT22;9905;52.126;5.596;2023-04-07T07:49:09;9.20;99.90
19522;DHT22;9905;52.126;5.596;2023-04-07T07:51:36;9.20;99.90
19522;DHT22;9905;52.126;5.596;2023-04-07T07:54:03;9.30;99.90
19522;DHT22;9905;52.126;5.596;2023-04-07T07:56:30;9.30;99.90
19522;DHT22;9905;52.126;5.596;2023-04-07T07:58:56;9.40;99.90
19522;DHT22;9905;52.126;5.596;2023-04-07T08:01:23;9.40;99.90
19522;DHT22;9905;52.126;5.596;2023-04-07T08:03:50;9.50;99.90
19522;DHT22;9905;52.126;5.596;2023-04-07T08:06:18;9.50;99.90
19522;DHT22;9905;52.126;5.596;2023-04-07T08:08:45;9.60;99.90
19522;DHT22;9905;52.126;5.596;2023-04-07T08:11:11;9.50;99.90
19522;DHT22;9905;52.126;5.596;2023-04-07T08:13:38;9.60;99.90
19522;DHT22;9905;52.126;5.596;2023-04-07T08:16:08;9.70;99.90
19522;DHT22;9905;52.126;5.596;2023-04-07T08:18:35;9.60;99.90
19522;DHT22;9905;52.126;5.596;2023-04-07T08:21:03;9.50;99.90
19522;DHT22;9905;52.126;5.596;2023-04-07T08:23:31;9.50;99.90
19522;DHT22;9905;52.126;5.596;2023-04-07T08:25:58;9.50;99.90
19522;DHT22;9905;52.126;5.596;2023-04-07T08:28:25;9.50;99.90
19522;DHT22;9905;52.126;5.596;2023-04-07T08:30:52;9.50;99.90
19522;DHT22;9905;52.126;5.596;2023-04-07T08:33:18;9.50;99.90
19522;DHT22;9905;52.126;5.596;2023-04-07T08:35:45;9.50;99.90
19522;DHT22;9905;52.126;5.596;2023-04-07T08:38:12;9.50;99.90
19522;DHT22;9905;52.126;5.596;2023-04-07T08:40:40;9.60;99.90
19522;DHT22;9905;52.126;5.596;2023-04-07T08:43:08;9.70;99.90
19522;DHT22;9905;52.126;5.596;2023-04-07T08:45:38;9.70;99.90
19522;DHT22;9905;52.126;5.596;2023-04-07T08:48:10;9.70;99.90
19522;DHT22;9905;52.126;5.596;2023-04-07T08:50:39;9.70;99.90
19522;DHT22;9905;52.126;5.596;2023-04-07T08:53:09;9.60;99.90
19522;DHT22;9905;52.126;5.596;2023-04-07T08:55:38;9.70;99.90
19522;DHT22;9905;52.126;5.596;2023-04-07T08:58:08;9.70;99.90
19522;DHT22;9905;52.126;5.596;2023-04-07T09:00:37;9.80;99.90
19522;DHT22;9905;52.126;5.596;2023-04-07T09:03:06;9.90;99.90
19522;DHT22;9905;52.126;5.596;2023-04-07T09:05:34;10.00;99.90
19522;DHT22;9905;52.126;5.596;2023-04-07T09:08:02;10.10;99.90
19522;DHT22;9905;52.126;5.596;2023-04-07T09:10:29;10.10;99.90
19522;DHT22;9905;52.126;5.596;2023-04-07T09:12:57;10.20;99.90
19522;DHT22;9905;52.126;5.596;2023-04-07T09:15:27;10.20;99.90
19522;DHT22;9905;52.126;5.596;2023-04-07T09:17:55;10.20;99.90
19522;DHT22;9905;52.126;5.596;2023-04-07T09:20:22;10.10;99.90
19522;DHT22;9905;52.126;5.596;2023-04-07T09:22:50;10.10;99.90
19522;DHT22;9905;52.126;5.596;2023-04-07T09:25:18;10.10;99.90
19522;DHT22;9905;52.126;5.596;2023-04-07T09:27:57;10.10;99.90
19522;DHT22;9905;52.126;5.596;2023-04-07T09:30:26;10.10;99.90
19522;DHT22;9905;52.126;5.596;2023-04-07T09:32:52;10.10;99.90
19522;DHT22;9905;52.126;5.596;2023-04-07T09:35:19;10.00;99.90
19522;DHT22;9905;52.126;5.596;2023-04-07T09:38:01;10.00;99.90
19522;DHT22;9905;52.126;5.596;2023-04-07T09:40:28;10.00;99.90
19522;DHT22;9905;52.126;5.596;2023-04-07T09:42:55;9.90;99.90
19522;DHT22;9905;52.126;5.596;2023-04-07T09:45:25;10.00;99.90
19522;DHT22;9905;52.126;5.596;2023-04-07T09:47:53;10.00;99.90
19522;DHT22;9905;52.126;5.596;2023-04-07T09:50:32;10.00;99.90
19522;DHT22;9905;52.126;5.596;2023-04-07T09:53:00;10.00;99.90
19522;DHT22;9905;52.126;5.596;2023-04-07T09:55:29;10.10;99.90
19522;DHT22;9905;52.126;5.596;2023-04-07T09:57:56;10.10;99.90
19522;DHT22;9905;52.126;5.596;2023-04-07T10:00:25;10.00;99.90
19522;DHT22;9905;52.126;5.596;2023-04-07T10:02:52;9.90;99.90
19522;DHT22;9905;52.126;5.596;2023-04-07T10:05:19;9.90;99.90
19522;DHT22;9905;52.126;5.596;2023-04-07T10:07:46;9.90;99.90
19522;DHT22;9905;52.126;5.596;2023-04-07T10:10:13;10.00;99.90
19522;DHT22;9905;52.126;5.596;2023-04-07T10:12:41;10.00;99.90
19522;DHT22;9905;52.126;5.596;2023-04-07T10:15:10;10.00;99.90
19522;DHT22;9905;52.126;5.596;2023-04-07T10:17:39;10.00;99.90
19522;DHT22;9905;52.126;5.596;2023-04-07T10:20:09;10.00;99.90
19522;DHT22;9905;52.126;5.596;2023-04-07T10:22:37;10.10;99.90
19522;DHT22;9905;52.126;5.596;2023-04-07T10:25:06;10.10;99.90
19522;DHT22;9905;52.126;5.596;2023-04-07T10:27:41;10.10;99.90
19522;DHT22;9905;52.126;5.596;2023-04-07T10:30:17;10.20;99.90
19522;DHT22;9905;52.126;5.596;2023-04-07T10:32:50;10.20;99.90
19522;DHT22;9905;52.126;5.596;2023-04-07T10:35:17;10.20;99.90
19522;DHT22;9905;52.126;5.596;2023-04-07T10:38:11;10.10;99.90
19522;DHT22;9905;52.126;5.596;2023-04-07T10:40:40;10.10;99.90
19522;DHT22;9905;52.126;5.596;2023-04-07T10:43:08;10.10;99.90
19522;DHT22;9905;52.126;5.596;2023-04-07T10:45:51;10.10;99.90
19522;DHT22;9905;52.126;5.596;2023-04-07T10:48:20;10.20;99.90
19522;DHT22;9905;52.126;5.596;2023-04-07T10:51:12;10.10;99.90
19522;DHT22;9905;52.126;5.596;2023-04-07T10:57:12;10.10;99.90
19522;DHT22;9905;52.126;5.596;2023-04-07T11:00:14;10.10;99.90
19522;DHT22;9905;52.126;5.596;2023-04-07T11:02:42;10.10;99.90
19522;DHT22;9905;52.126;5.596;2023-04-07T11:05:20;10.10;99.90
19522;DHT22;9905;52.126;5.596;2023-04-07T11:07:50;10.10;99.90
19522;DHT22;9905;52.126;5.596;2023-04-07T11:10:18;10.20;99.90
19522;DHT22;9905;52.126;5.596;2023-04-07T11:13:02;10.30;99.90
19522;DHT22;9905;52.126;5.596;2023-04-07T11:15:29;10.30;99.90
19522;DHT22;9905;52.126;5.596;2023-04-07T11:18:07;10.30;99.90
19522;DHT22;9905;52.126;5.596;2023-04-07T11:20:47;10.30;99.90
19522;DHT22;9905;52.126;5.596;2023-04-07T11:23:14;10.30;99.90
19522;DHT22;9905;52.126;5.596;2023-04-07T11:25:43;10.30;99.90
19522;DHT22;9905;52.126;5.596;2023-04-07T11:28:11;10.40;99.90
19522;DHT22;9905;52.126;5.596;2023-04-07T11:30:43;10.40;99.90
19522;DHT22;9905;52.126;5.596;2023-04-07T11:33:14;10.40;99.90
19522;DHT22;9905;52.126;5.596;2023-04-07T11:35:51;10.50;99.90
19522;DHT22;9905;52.126;5.596;2023-04-07T11:38:22;10.50;99.90
19522;DHT22;9905;52.126;5.596;2023-04-07T11:40:49;10.50;99.90
19522;DHT22;9905;52.126;5.596;2023-04-07T11:43:20;10.60;99.90
19522;DHT22;9905;52.126;5.596;2023-04-07T11:46:06;10.60;99.90
19522;DHT22;9905;52.126;5.596;2023-04-07T11:48:34;10.60;99.90
19522;DHT22;9905;52.126;5.596;2023-04-07T11:51:02;10.60;99.90
19522;DHT22;9905;52.126;5.596;2023-04-07T11:53:31;10.60;99.90
19522;DHT22;9905;52.126;5.596;2023-04-07T11:56:05;10.70;99.90
19522;DHT22;9905;52.126;5.596;2023-04-07T11:58:35;10.70;99.90
19522;DHT22;9905;52.126;5.596;2023-04-07T12:01:03;10.70;99.90
19522;DHT22;9905;52.126;5.596;2023-04-07T12:03:34;10.60;99.90
19522;DHT22;9905;52.126;5.596;2023-04-07T12:06:03;10.60;99.90
19522;DHT22;9905;52.126;5.596;2023-04-07T12:08:38;10.70;99.90
19522;DHT22;9905;52.126;5.596;2023-04-07T12:11:05;10.60;99.90
19522;DHT22;9905;52.126;5.596;2023-04-07T12:13:32;10.60;99.90
19522;DHT22;9905;52.126;5.596;2023-04-07T12:15:59;10.70;99.90
19522;DHT22;9905;52.126;5.596;2023-04-07T12:18:27;10.60;99.90
19522;DHT22;9905;52.126;5.596;2023-04-07T12:20:54;10.60;99.90
19522;DHT22;9905;52.126;5.596;2023-04-07T12:23:23;10.60;99.90
19522;DHT22;9905;52.126;5.596;2023-04-07T12:25:50;10.60;99.90
19522;DHT22;9905;52.126;5.596;2023-04-07T12:28:17;10.60;99.90
19522;DHT22;9905;52.126;5.596;2023-04-07T12:30:44;10.60;99.90
19522;DHT22;9905;52.126;5.596;2023-04-07T12:33:11;10.60;99.90
19522;DHT22;9905;52.126;5.596;2023-04-07T12:35:38;10.70;99.90
19522;DHT22;9905;52.126;5.596;2023-04-07T12:38:04;10.70;99.90
19522;DHT22;9905;52.126;5.596;2023-04-07T12:40:34;10.80;99.90
19522;DHT22;9905;52.126;5.596;2023-04-07T12:43:00;10.80;99.90
19522;DHT22;9905;52.126;5.596;2023-04-07T12:45:28;10.80;99.90
19522;DHT22;9905;52.126;5.596;2023-04-07T12:47:56;10.80;99.90
19522;DHT22;9905;52.126;5.596;2023-04-07T12:50:23;10.80;99.90
19522;DHT22;9905;52.126;5.596;2023-04-07T12:52:51;10.80;99.90
19522;DHT22;9905;52.126;5.596;2023-04-07T12:55:19;10.70;99.90
19522;DHT22;9905;52.126;5.596;2023-04-07T12:57:47;10.80;99.90
19522;DHT22;9905;52.126;5.596;2023-04-07T13:00:14;10.80;99.90
19522;DHT22;9905;52.126;5.596;2023-04-07T13:02:41;10.90;99.90
19522;DHT22;9905;52.126;5.596;2023-04-07T13:05:08;10.80;99.90
19522;DHT22;9905;52.126;5.596;2023-04-07T13:07:35;10.80;99.90
19522;DHT22;9905;52.126;5.596;2023-04-07T13:10:03;10.80;99.90
19522;DHT22;9905;52.126;5.596;2023-04-07T13:12:31;10.70;99.90
19522;DHT22;9905;52.126;5.596;2023-04-07T13:14:59;10.70;99.90
19522;DHT22;9905;52.126;5.596;2023-04-07T13:17:26;10.70;99.90
19522;DHT22;9905;52.126;5.596;2023-04-07T13:19:54;10.70;99.90
19522;DHT22;9905;52.126;5.596;2023-04-07T13:22:21;10.70;99.90
19522;DHT22;9905;52.126;5.596;2023-04-07T13:24:48;10.70;99.90
19522;DHT22;9905;52.126;5.596;2023-04-07T13:27:15;10.70;99.90
19522;DHT22;9905;52.126;5.596;2023-04-07T13:29:41;10.80;99.90
19522;DHT22;9905;52.126;5.596;2023-04-07T13:32:10;10.70;99.90
19522;DHT22;9905;52.126;5.596;2023-04-07T13:34:39;10.70;99.90
19522;DHT22;9905;52.126;5.596;2023-04-07T13:37:06;10.60;99.90
19522;DHT22;9905;52.126;5.596;2023-04-07T13:39:33;10.70;99.90
19522;DHT22;9905;52.126;5.596;2023-04-07T13:42:00;10.70;99.90
19522;DHT22;9905;52.126;5.596;2023-04-07T13:44:27;10.60;99.90
19522;DHT22;9905;52.126;5.596;2023-04-07T13:46:56;10.60;99.90
19522;DHT22;9905;52.126;5.596;2023-04-07T13:49:24;10.60;99.90
19522;DHT22;9905;52.126;5.596;2023-04-07T13:51:51;10.70;99.90
19522;DHT22;9905;52.126;5.596;2023-04-07T13:54:18;10.60;99.90
19522;DHT22;9905;52.126;5.596;2023-04-07T13:56:45;10.60;99.90
19522;DHT22;9905;52.126;5.596;2023-04-07T13:59:13;10.60;99.90
19522;DHT22;9905;52.126;5.596;2023-04-07T14:01:40;10.60;99.90
19522;DHT22;9905;52.126;5.596;2023-04-07T14:04:06;10.70;99.90
19522;DHT22;9905;52.126;5.596;2023-04-07T14:06:34;10.70;99.90
19522;DHT22;9905;52.126;5.596;2023-04-07T14:09:02;10.80;99.90
19522;DHT22;9905;52.126;5.596;2023-04-07T14:11:31;10.80;99.90
19522;DHT22;9905;52.126;5.596;2023-04-07T14:13:59;10.80;99.90
19522;DHT22;9905;52.126;5.596;2023-04-07T14:16:25;10.80;99.90
19522;DHT22;9905;52.126;5.596;2023-04-07T14:18:52;10.80;99.90
19522;DHT22;9905;52.126;5.596;2023-04-07T14:21:20;10.80;99.90
19522;DHT22;9905;52.126;5.596;2023-04-07T14:23:48;10.60;99.90
19522;DHT22;9905;52.126;5.596;2023-04-07T14:26:15;10.70;99.90
19522;DHT22;9905;52.126;5.596;2023-04-07T14:28:42;10.70;99.90
19522;DHT22;9905;52.126;5.596;2023-04-07T14:31:11;10.70;99.90
19522;DHT22;9905;52.126;5.596;2023-04-07T14:33:38;10.60;99.90
19522;DHT22;9905;52.126;5.596;2023-04-07T14:36:05;10.60;99.90
19522;DHT22;9905;52.126;5.596;2023-04-07T14:38:32;10.60;99.90
19522;DHT22;9905;52.126;5.596;2023-04-07T14:41:00;10.50;99.90
19522;DHT22;9905;52.126;5.596;2023-04-07T14:43:28;10.50;99.90
19522;DHT22;9905;52.126;5.596;2023-04-07T14:45:54;10.40;99.90
19522;DHT22;9905;52.126;5.596;2023-04-07T14:48:22;10.50;99.90
19522;DHT22;9905;52.126;5.596;2023-04-07T14:50:48;10.50;99.90
19522;DHT22;9905;52.126;5.596;2023-04-07T14:53:15;10.50;99.90
19522;DHT22;9905;52.126;5.596;2023-04-07T14:55:42;10.50;99.90
19522;DHT22;9905;52.126;5.596;2023-04-07T14:58:10;10.60;99.90
19522;DHT22;9905;52.126;5.596;2023-04-07T15:00:37;10.60;99.90
19522;DHT22;9905;52.126;5.596;2023-04-07T15:03:03;10.60;99.90
19522;DHT22;9905;52.126;5.596;2023-04-07T15:05:30;10.70;99.90
19522;DHT22;9905;52.126;5.596;2023-04-07T15:07:57;10.70;99.90
19522;DHT22;9905;52.126;5.596;2023-04-07T15:10:23;10.70;99.90
19522;DHT22;9905;52.126;5.596;2023-04-07T15:12:50;10.70;99.90
19522;DHT22;9905;52.126;5.596;2023-04-07T15:15:19;10.70;99.90
19522;DHT22;9905;52.126;5.596;2023-04-07T15:17:46;10.70;99.90
19522;DHT22;9905;52.126;5.596;2023-04-07T15:20:12;10.70;99.90
19522;DHT22;9905;52.126;5.596;2023-04-07T15:22:39;10.70;99.90
19522;DHT22;9905;52.126;5.596;2023-04-07T15:25:06;10.70;99.90
19522;DHT22;9905;52.126;5.596;2023-04-07T15:27:33;10.70;99.90
19522;DHT22;9905;52.126;5.596;2023-04-07T15:30:00;10.70;99.90
19522;DHT22;9905;52.126;5.596;2023-04-07T15:32:29;10.60;99.90
19522;DHT22;9905;52.126;5.596;2023-04-07T15:34:56;10.50;99.90
19522;DHT22;9905;52.126;5.596;2023-04-07T15:37:23;10.50;99.90
19522;DHT22;9905;52.126;5.596;2023-04-07T15:39:50;10.50;99.90
19522;DHT22;9905;52.126;5.596;2023-04-07T15:42:17;10.50;99.90
19522;DHT22;9905;52.126;5.596;2023-04-07T15:44:43;10.60;99.90
19522;DHT22;9905;52.126;5.596;2023-04-07T15:47:10;10.60;99.90
19522;DHT22;9905;52.126;5.596;2023-04-07T15:49:38;10.60;99.90
19522;DHT22;9905;52.126;5.596;2023-04-07T15:52:06;10.60;99.90
19522;DHT22;9905;52.126;5.596;2023-04-07T15:54:33;10.60;99.90
19522;DHT22;9905;52.126;5.596;2023-04-07T15:57:00;10.60;99.90
19522;DHT22;9905;52.126;5.596;2023-04-07T15:59:27;10.60;99.90
19522;DHT22;9905;52.126;5.596;2023-04-07T16:01:55;10.60;99.90
19522;DHT22;9905;52.126;5.596;2023-04-07T16:04:22;10.50;99.90